Flight Track Log - Related Links

Times and Time Zones

All times are in EDT time to prevent confusion due to time zone crossing. See the DAL268 flight status page for this flight to view local times or setup timezone preferences in your user account.

Time Position Orientation Groundspeed Altitude Reporting Facility
EDT Latitude Longitude Course Direction KTS MPH feet Rate Location/Type
Wed 03:01:03 PM 37.6166 -122.3640 360° North 105 121  Level FlightAware ADS-B
Wed 03:01:16 PM 37.6206 -122.3740 297° West 157 181 100 1,680 Climbing FlightAware ADS-B
Wed 03:01:28 PM 37.6249 -122.3830 301° West 159 183 700 3,200 Climbing FlightAware ADS-B
Wed 03:01:31 PM 37.6263 -122.3850 311° West 159 183 900 4,000 Climbing FlightAware ADS-B
Wed 03:01:34 PM 37.6280 -122.3880 306° West 158 182 1,100 4,000 Climbing FlightAware ADS-B
Wed 03:01:37 PM 37.6299 -122.3890 337° Northwest 159 183 1,300 4,286 Climbing FlightAware ADS-B
Wed 03:01:41 PM 37.6322 -122.3900 341° North 158 182 1,600 3,750 Climbing FlightAware ADS-B
Wed 03:01:45 PM 37.6354 -122.3910 346° North 161 185 1,800 3,273 Climbing FlightAware ADS-B
Wed 03:01:52 PM 37.6409 -122.3900 North 164 189 2,200 3,000 Climbing FlightAware ADS-B
Wed 03:01:55 PM 37.6432 -122.3890 19° North 172 198 2,300 2,250 Climbing FlightAware ADS-B
Wed 03:02:00 PM 37.6465 -122.3870 26° Northeast 175 201 2,500 2,667 Climbing FlightAware ADS-B
Wed 03:02:04 PM 37.6492 -122.3840 41° Northeast 176 203 2,700 3,429 Climbing FlightAware ADS-B
Wed 03:02:07 PM 37.6512 -122.3820 38° Northeast 176 203 2,900 3,429 Climbing FlightAware ADS-B
Wed 03:02:11 PM 37.6530 -122.3790 53° Northeast 179 206 3,100 3,000 Climbing FlightAware ADS-B
Wed 03:02:17 PM 37.6561 -122.3740 52° Northeast 180 207 3,400 2,500 Climbing FlightAware ADS-B
Wed 03:02:23 PM 37.6587 -122.3680 61° Northeast 184 212 3,600 1,765 Climbing FlightAware ADS-B
Wed 03:02:34 PM 37.6635 -122.3570 61° Northeast 199 229 3,900 1,200 Climbing FlightAware ADS-B
Wed 03:02:48 PM 37.6693 -122.3420 64° Northeast 221 254 4,100 1,304 Climbing FlightAware ADS-B
Wed 03:02:57 PM 37.6740 -122.3320 59° Northeast 231 266 4,400 2,077 Climbing FlightAware ADS-B
Wed 03:03:14 PM 37.6842 -122.3120 57° Northeast 249 287 5,000 2,229 Climbing FlightAware ADS-B
Wed 03:03:32 PM 37.6956 -122.2880 59° Northeast 263 303 5,700 2,824 Climbing FlightAware ADS-B
Wed 03:03:48 PM 37.7057 -122.2670 59° Northeast 268 308 6,600 3,097 Climbing FlightAware ADS-B
Wed 03:04:03 PM 37.7154 -122.2470 58° Northeast 272 313 7,300 2,914 Climbing FlightAware ADS-B
Wed 03:04:23 PM 37.7274 -122.2180 62° Northeast 278 320 8,300 2,909 Climbing FlightAware ADS-B
Wed 03:04:36 PM 37.7341 -122.1980 67° East 289 333 8,900 2,800 Climbing FlightAware ADS-B
Wed 03:04:53 PM 37.7417 -122.1710 70° East 296 341 9,700 2,625 Climbing FlightAware ADS-B
Wed 03:05:24 PM 37.7566 -122.1180 70° East 308 354 11,000 1,839 Climbing FlightAware ADS-B
Wed 03:05:55 PM 37.7731 -122.0610 70° East 353 406 11,600 1,429 Climbing FlightAware ADS-B
Wed 03:06:27 PM 37.7918 -121.9960 70° East 379 436 12,500 1,875 Climbing FlightAware ADS-B
Wed 03:06:59 PM 37.8120 -121.9280 69° East 395 455 13,600 2,000 Climbing FlightAware ADS-B
Wed 03:07:30 PM 37.8320 -121.8590 70° East 416 479 14,600 2,066 Climbing FlightAware ADS-B
Wed 03:08:00 PM 37.8516 -121.7910 70° East 425 489 15,700 1,400 Climbing FlightAware ADS-B
Wed 03:08:30 PM 37.8728 -121.7170 70° East 454 522 16,000 1,082 Climbing FlightAware ADS-B
Wed 03:09:01 PM 37.8949 -121.6400 70° East 469 540 16,800 1,967 Climbing FlightAware ADS-B
Wed 03:09:31 PM 37.9168 -121.5620 70° East 466 536 18,000 2,000 Climbing FlightAware ADS-B
Wed 03:10:01 PM 37.9389 -121.4850 70° East 471 542 18,800 1,377 Climbing FlightAware ADS-B
Wed 03:10:32 PM 37.9620 -121.4030 70° East 481 554 19,400 1,161 Climbing FlightAware ADS-B
Wed 03:11:03 PM 37.9862 -121.3180 70° East 492 566 20,000 1,143 Climbing FlightAware ADS-B
Wed 03:11:35 PM 38.0105 -121.2320 70° East 502 578 20,600 1,200 Climbing FlightAware ADS-B
Wed 03:12:23 PM 38.0480 -121.0990 70° East 516 594 21,600 1,244 Climbing FlightAware ADS-B
Wed 03:12:57 PM 38.0760 -121.0000 70° East 525 604 22,300 1,235 Climbing FlightAware ADS-B
Wed 03:13:31 PM 38.1020 -120.8980 72° East 535 616 23,000 1,135 Climbing FlightAware ADS-B
Wed 03:14:11 PM 38.1280 -120.7850 74° East 545 627 23,700 1,167 Climbing FlightAware ADS-B
Wed 03:14:43 PM 38.1530 -120.6780 73° East 552 635 24,400 1,235 Climbing FlightAware ADS-B
Wed 03:15:19 PM 38.1780 -120.5650 74° East 560 644 25,100 1,083 Climbing FlightAware ADS-B
Wed 03:15:55 PM 38.1980 -120.4530 77° East 565 650 25,700 1,083 Climbing FlightAware ADS-B
Wed 03:16:31 PM 38.2180 -120.3340 78° East 569 655 26,400 1,147 Climbing FlightAware ADS-B
Wed 03:17:03 PM 38.2360 -120.2280 78° East 575 662 27,000 522 Climbing FlightAware ADS-B
Wed 03:17:40 PM 38.2580 -120.1030 77° East 578 665 27,000 329 Level FlightAware ADS-B
Wed 03:18:16 PM 38.2790 -119.9820 77° East 581 669 27,400 794 Climbing FlightAware ADS-B
Wed 03:18:48 PM 38.2970 -119.8780 78° East 585 673 27,900 943 Climbing FlightAware ADS-B
Wed 03:19:26 PM 38.3200 -119.7490 77° East 587 676 28,500 1,114 Climbing FlightAware ADS-B
Wed 03:19:58 PM 38.3380 -119.6440 78° East 585 673 29,200 1,324 Climbing FlightAware ADS-B
Wed 03:20:34 PM 38.3590 -119.5200 78° East 584 672 30,000 1,233 Climbing FlightAware ADS-B
Wed 03:21:11 PM 38.3790 -119.4080 77° East 584 672 30,700 1,235 Climbing FlightAware ADS-B
Wed 03:21:42 PM 38.3980 -119.2930 78° East 585 673 31,400 1,130 Climbing FlightAware ADS-B
Wed 03:22:20 PM 38.4190 -119.1660 78° East 585 673 32,000 1,378 Climbing FlightAware ADS-B
Wed 03:22:56 PM 38.4390 -119.0460 78° East 578 665 33,100 1,500 Climbing FlightAware ADS-B
Wed 03:23:28 PM 38.4560 -118.9390 78° East 574 661 33,700 828 Climbing FlightAware ADS-B
Wed 03:24:23 PM 38.4830 -118.7720 78° East 571 657 34,300 848 Climbing FlightAware ADS-B
Wed 03:25:00 PM 38.5040 -118.6410 78° East 573 659 35,000 592 Climbing FlightAware ADS-B
Wed 03:25:34 PM 38.5220 -118.5220 79° East 577 664 35,000  Level FlightAware ADS-B
Wed 03:26:08 PM 38.5400 -118.4090 78° East 576 663 35,000  Level FlightAware ADS-B
Wed 03:26:44 PM 38.5590 -118.2880 79° East 579 666 35,000  Level FlightAware ADS-B
Wed 03:27:20 PM 38.5770 -118.1680 79° East 578 665 35,000  Level FlightAware ADS-B
Wed 03:27:56 PM 38.5960 -118.0490 78° East 578 665 35,000  Level FlightAware ADS-B
Wed 03:28:37 PM 38.6130 -117.9320 79° East 578 665 35,000  Level FlightAware ADS-B
Wed 03:29:12 PM 38.6290 -117.8320 78° East 578 665 35,000  Level FlightAware ADS-B
Wed 03:29:48 PM 38.6440 -117.7290 79° East 578 665 35,000  Level FlightAware ADS-B
Wed 03:30:24 PM 38.6600 -117.6260 79° East 578 665 35,000  Level FlightAware ADS-B
Wed 03:31:01 PM 38.6760 -117.5210 79° East 578 665 35,000  Level FlightAware ADS-B
Wed 03:31:37 PM 38.6910 -117.4180 79° East 578 665 35,000  Level FlightAware ADS-B
Wed 03:32:13 PM 38.7070 -117.3150 79° East 578 665 35,000  Level FlightAware ADS-B
Wed 03:32:49 PM 38.7230 -117.2120 79° East 578 665 35,000  Level FlightAware ADS-B
Wed 03:33:26 PM 38.7390 -117.1060 79° East 578 665 35,000  Level FlightAware ADS-B
Wed 03:34:02 PM 38.7540 -117.0030 79° East 578 665 35,000  Level FlightAware ADS-B
Wed 03:34:38 PM 38.7700 -116.9000 79° East 578 665 35,000  Level FlightAware ADS-B
Wed 03:35:12 PM 38.7850 -116.8030 79° East 578 665 35,000  Level FlightAware ADS-B
Wed 03:35:49 PM 38.8010 -116.6970 79° East 578 665 35,000  Level FlightAware ADS-B
Wed 03:36:24 PM 38.8160 -116.5960 79° East 578 665 35,000  Level FlightAware ADS-B
Wed 03:37:00 PM 38.8310 -116.4930 79° East 578 665 35,000  Level FlightAware ADS-B
Wed 03:37:37 PM 38.8470 -116.3870 79° East 578 665 35,000 1,558 Level FlightAware ADS-B
Wed 03:38:17 PM 38.8906 -115.9858 79° East 573 659 37,000 1,176 Climbing Salt Lake Center
Wed 03:39:19 PM 38.9178 -115.7828 80° East 577 664 37,000  Level Salt Lake Center
Wed 03:40:21 PM 38.9436 -115.5808 81° East 574 661 37,000  Level Salt Lake Center
Wed 03:41:23 PM 38.9725 -115.3564 81° East 571 657 37,000  Level Salt Lake Center
Wed 03:42:25 PM 38.9992 -115.1542 80° East 573 659 37,000  Level Salt Lake Center
Wed 03:48:37 PM 39.1539 -113.8706 80° East 575 662 37,000  Level FlightAware ADS-B
Wed 03:49:19 PM 39.1700 -113.7300 82° East 577 664 37,000  Level FlightAware ADS-B
Wed 03:49:39 PM 39.1778 -113.6606 82° East 577 664 37,000  Level FlightAware ADS-B
Wed 03:50:19 PM 39.1933 -113.5229 82° East 576 663 37,000  Level FlightAware ADS-B
Wed 03:50:53 PM 39.2059 -113.4087 82° East 577 664 37,000  Level FlightAware ADS-B
Wed 03:51:46 PM 39.2248 -113.2372 82° East 580 667 37,000  Level FlightAware ADS-B
Wed 03:52:33 PM 39.2431 -113.0682 82° East 581 669 37,000  Level FlightAware ADS-B
Wed 03:52:45 PM 39.2478 -113.0250 82° East 580 667 37,000  Level FlightAware ADS-B
Wed 03:53:19 PM 39.2601 -112.9090 82° East 582 670 37,000  Level FlightAware ADS-B
Wed 03:53:49 PM 39.2711 -112.8050 82° East 581 669 37,000  Level FlightAware ADS-B
Wed 03:53:54 PM 39.2725 -112.7911 82° East 581 669 37,000  Level FlightAware ADS-B
Wed 03:54:27 PM 39.2840 -112.6814 82° East 582 670 37,000  Level FlightAware ADS-B
Wed 03:54:28 PM 39.2851 -112.6710 82° East 582 670 37,000  Level FlightAware ADS-B
Wed 03:54:50 PM 39.2930 -112.5970 82° East 583 671 37,000  Level FlightAware ADS-B
Wed 03:55:11 PM 39.3055 -112.5250 77° East 583 671 37,000  Level FlightAware ADS-B
Wed 03:55:26 PM 39.3184 -112.4760 71° East 581 669 37,000  Level FlightAware ADS-B
Wed 03:55:29 PM 39.3203 -112.4702 68° East 581 669 37,000  Level FlightAware ADS-B
Wed 03:55:40 PM 39.3334 -112.4320 66° East 577 664 37,000  Level FlightAware ADS-B
Wed 03:55:57 PM 39.3534 -112.3820 63° Northeast 575 662 37,000  Level FlightAware ADS-B
Wed 03:56:28 PM 39.3885 -112.2830 65° Northeast 577 664 37,000  Level FlightAware ADS-B
Wed 03:56:30 PM 39.3881 -112.2839 238° Southwest 577 664 37,000  Level FlightAware ADS-B
Wed 03:56:59 PM 39.4213 -112.1860 66° East 577 664 37,000  Level FlightAware ADS-B
Wed 03:57:00 PM 39.4222 -112.1837 62° Northeast 577 664 37,000  Level FlightAware ADS-B
Wed 03:57:33 PM 39.4592 -112.0780 66° East 576 663 37,000  Level FlightAware ADS-B
Wed 03:58:04 PM 39.4936 -111.9820 65° Northeast 579 666 37,000  Level FlightAware ADS-B
Wed 03:58:05 PM 39.4946 -111.9792 65° Northeast 579 666 37,000  Level FlightAware ADS-B
Wed 03:58:36 PM 39.5295 -111.8830 65° Northeast 580 667 37,000  Level FlightAware ADS-B
Wed 03:59:06 PM 39.5645 -111.7860 65° Northeast 581 669 37,000  Level FlightAware ADS-B
Wed 03:59:43 PM 39.6063 -111.6710 65° Northeast 579 666 37,000  Level FlightAware ADS-B
Wed 03:59:49 PM 39.6130 -111.6527 65° Northeast 578 665 37,000  Level FlightAware ADS-B
Wed 04:00:14 PM 39.6415 -111.5740 65° Northeast 576 663 37,000  Level FlightAware ADS-B
Wed 04:00:45 PM 39.6758 -111.4790 65° Northeast 579 666 37,000  Level FlightAware ADS-B
Wed 04:00:59 PM 39.6925 -111.4327 65° Northeast 582 670 37,000  Level FlightAware ADS-B
Wed 04:01:15 PM 39.7103 -111.3830 65° Northeast 583 671 37,000  Level FlightAware ADS-B
Wed 04:01:31 PM 39.7268 -111.3371 65° Northeast 583 671 37,000  Level FlightAware ADS-B
Wed 04:01:45 PM 39.7447 -111.2870 65° Northeast 583 671 37,000  Level FlightAware ADS-B
Wed 04:02:04 PM 39.7651 -111.2296 65° Northeast 583 671 37,000  Level FlightAware ADS-B
Wed 04:02:16 PM 39.7790 -111.1910 65° Northeast 583 671 37,000  Level FlightAware ADS-B
Wed 04:02:46 PM 39.8132 -111.0940 65° Northeast 582 670 37,000  Level FlightAware ADS-B
Wed 04:03:17 PM 39.8477 -110.9960 65° Northeast 582 670 37,000  Level FlightAware ADS-B
Wed 04:03:47 PM 39.8817 -110.9000 65° Northeast 582 670 37,000  Level FlightAware ADS-B
Wed 04:04:19 PM 39.9120 -110.8120 66° East 582 670 37,000  Level FlightAware ADS-B
Wed 04:04:29 PM 39.9284 -110.7660 65° Northeast 582 670 37,000  Level FlightAware ADS-B
Wed 04:05:29 PM 39.9930 -110.5820 65° Northeast 581 669 37,000  Level FlightAware ADS-B
Wed 04:06:05 PM 40.0300 -110.4750 66° East 580 667 37,000  Level FlightAware ADS-B
Wed 04:06:41 PM 40.0730 -110.3500 66° East 579 666 37,000  Level FlightAware ADS-B
Wed 04:07:13 PM 40.1070 -110.2500 66° East 578 665 37,000  Level FlightAware ADS-B
Wed 04:07:45 PM 40.1410 -110.1470 67° East 579 666 37,000  Level FlightAware ADS-B
Wed 04:07:47 PM 40.1393 -110.1532 251° West 579 666 37,000  Level FlightAware ADS-B (KGUC)
Wed 04:08:22 PM 40.1790 -110.0260 68° East 577 664 37,000  Level FlightAware ADS-B
Wed 04:08:28 PM 40.1853 -110.0028 70° East 578 665 37,000  Level FlightAware ADS-B (KGUC)
Wed 04:09:01 PM 40.2160 -109.8980 69° East 577 664 37,000  Level FlightAware ADS-B
Wed 04:09:31 PM 40.2430 -109.8060 69° East 575 662 37,000  Level FlightAware ADS-B
Wed 04:09:51 PM 40.2452 -109.7984 70° East 574 661 37,000  Level FlightAware ADS-B (KGUC)
Wed 04:10:47 PM 40.3150 -109.5550 69° East 576 663 37,000  Level FlightAware ADS-B
Wed 04:11:05 PM 40.3310 -109.5010 69° East 577 664 37,000  Level FlightAware ADS-B
Wed 04:11:57 PM 40.3810 -109.3260 69° East 575 662 37,000  Level FlightAware ADS-B
Wed 04:12:29 PM 40.4110 -109.2210 69° East 577 664 37,000  Level FlightAware ADS-B
Wed 04:12:30 PM 40.3870 -109.3044 249° West 577 664 37,000  Level FlightAware ADS-B (KGUC)
Wed 04:13:06 PM 40.4388 -109.1220 69° East 575 662 37,000  Level FlightAware ADS-B (KGUC)
Wed 04:13:40 PM 40.4760 -108.9900 70° East 573 659 37,000  Level FlightAware ADS-B
Wed 04:14:14 PM 40.5070 -108.8810 69° East 571 657 37,000  Level FlightAware ADS-B
Wed 04:14:34 PM 40.5050 -108.8871 247° West 573 659 37,000  Level FlightAware ADS-B (KGUC)
Wed 04:15:23 PM 40.5700 -108.6520 70° East 571 657 37,000  Level FlightAware ADS-B
Wed 04:15:30 PM 40.5639 -108.6759 251° West 572 658 37,000  Level FlightAware ADS-B (KGUC)
Wed 04:16:01 PM 40.6050 -108.5280 70° East 570 656 37,000  Level FlightAware ADS-B
Wed 04:16:28 PM 40.6284 -108.4425 70° East 570 656 37,000  Level FlightAware ADS-B (KGUC)
Wed 04:17:09 PM 40.6570 -108.3386 70° East 572 658 37,000  Level FlightAware ADS-B (KGUC)
Wed 04:17:46 PM 40.6980 -108.1890 70° East 571 657 37,000  Level FlightAware ADS-B
Wed 04:18:20 PM 40.7280 -108.0770 71° East 572 658 37,000  Level FlightAware ADS-B
Wed 04:18:56 PM 40.7600 -107.9620 70° East 569 655 37,000  Level FlightAware ADS-B
Wed 04:19:31 PM 40.7910 -107.8440 71° East 571 657 37,000  Level FlightAware ADS-B
Wed 04:20:05 PM 40.8210 -107.7310 71° East 570 656 37,000  Level FlightAware ADS-B
Wed 04:20:38 PM 40.8500 -107.6250 70° East 568 654 37,000  Level FlightAware ADS-B
Wed 04:20:40 PM 40.8468 -107.6368 250° West 569 655 37,000  Level FlightAware ADS-B (KGUC)
Wed 04:21:12 PM 40.8790 -107.5140 71° East 569 655 37,000  Level FlightAware ADS-B
Wed 04:22:09 PM 40.9240 -107.3470 70° East 568 654 37,000  Level FlightAware ADS-B
Wed 04:22:45 PM 40.9520 -107.2470 70° East 568 654 37,000  Level FlightAware ADS-B
Wed 04:23:22 PM 40.9800 -107.1440 70° East 568 654 37,000  Level FlightAware ADS-B
Wed 04:23:54 PM 41.0170 -106.9910 72° East 563 648 37,000  Level FlightAware ADS-B
Wed 04:24:31 PM 41.0500 -106.8630 71° East 561 646 37,000  Level FlightAware ADS-B
Wed 04:25:07 PM 41.0790 -106.7490 71° East 560 644 37,000  Level FlightAware ADS-B
Wed 04:25:36 PM 41.1020 -106.6580 71° East 560 644 37,000  Level FlightAware ADS-B
Wed 04:26:13 PM 41.1340 -106.5330 71° East 559 643 37,000  Level FlightAware ADS-B
Wed 04:26:51 PM 41.1650 -106.4130 71° East 561 646 37,000  Level FlightAware ADS-B
Wed 04:27:24 PM 41.1920 -106.3040 72° East 560 644 37,000  Level FlightAware ADS-B
Wed 04:28:01 PM 41.2230 -106.1820 71° East 557 641 37,000  Level FlightAware ADS-B
Wed 04:28:38 PM 41.2520 -106.0670 71° East 557 641 37,000  Level FlightAware ADS-B
Wed 04:29:14 PM 41.2820 -105.9490 71° East 554 638 37,000  Level FlightAware ADS-B
Wed 04:29:45 PM 41.3060 -105.8490 72° East 553 636 37,000  Level FlightAware ADS-B
Wed 04:30:22 PM 41.3360 -105.7290 72° East 553 636 37,000  Level FlightAware ADS-B
Wed 04:30:55 PM 41.3630 -105.6200 72° East 553 636 37,000  Level FlightAware ADS-B
Wed 04:31:31 PM 41.3940 -105.5030 71° East 555 639 37,000  Level FlightAware ADS-B
Wed 04:32:06 PM 41.4220 -105.3950 71° East 553 636 37,000  Level FlightAware ADS-B
Wed 04:32:41 PM 41.4520 -105.2800 71° East 549 632 37,000  Level FlightAware ADS-B
Wed 04:33:18 PM 41.4820 -105.1620 71° East 548 631 37,000  Level FlightAware ADS-B
Wed 04:33:54 PM 41.5120 -105.0450 71° East 548 631 37,000  Level FlightAware ADS-B
Wed 04:34:27 PM 41.5380 -104.9400 72° East 547 629 37,000  Level FlightAware ADS-B
Wed 04:35:01 PM 41.5660 -104.8300 71° East 546 628 37,000  Level FlightAware ADS-B
Wed 04:35:38 PM 41.5950 -104.7130 72° East 545 627 37,000  Level FlightAware ADS-B
Wed 04:36:11 PM 41.6210 -104.6070 72° East 543 625 37,000  Level FlightAware ADS-B
Wed 04:36:47 PM 41.6500 -104.4920 71° East 543 625 37,000  Level FlightAware ADS-B
Wed 04:37:23 PM 41.6770 -104.3800 72° East 542 624 37,000  Level FlightAware ADS-B
Wed 04:37:55 PM 41.7030 -104.2770 71° East 539 620 37,000  Level FlightAware ADS-B
Wed 04:38:31 PM 41.7290 -104.1670 72° East 538 619 37,000  Level FlightAware ADS-B
Wed 04:39:04 PM 41.7560 -104.0600 71° East 536 617 37,000  Level FlightAware ADS-B
Wed 04:39:41 PM 41.7840 -103.9440 72° East 534 615 37,000  Level FlightAware ADS-B
Wed 04:40:18 PM 41.8110 -103.8290 72° East 533 613 37,000  Level FlightAware ADS-B
Wed 04:40:54 PM 41.8390 -103.7150 72° East 532 612 37,000  Level FlightAware ADS-B
Wed 04:41:27 PM 41.8630 -103.6120 73° East 531 611 37,000  Level FlightAware ADS-B
Wed 04:42:12 PM 41.8940 -103.4840 72° East 531 611 37,000  Level FlightAware ADS-B
Wed 04:42:48 PM 41.9170 -103.3880 72° East 531 611 37,000  Level FlightAware ADS-B
Wed 04:43:24 PM 41.9400 -103.2910 72° East 531 611 37,000  Level FlightAware ADS-B
Wed 04:44:03 PM 41.9660 -103.1870 71° East 531 611 37,000  Level FlightAware ADS-B
Wed 04:44:38 PM 41.9880 -103.0940 72° East 531 611 37,000  Level FlightAware ADS-B
Wed 04:45:14 PM 42.0110 -102.9980 72° East 531 611 37,000  Level FlightAware ADS-B
Wed 04:45:50 PM 42.0350 -102.9010 72° East 531 611 37,000  Level FlightAware ADS-B
Wed 04:46:26 PM 42.0580 -102.8050 72° East 531 611 37,000  Level FlightAware ADS-B
Wed 04:47:03 PM 42.0820 -102.7060 72° East 531 611 37,000  Level FlightAware ADS-B
Wed 04:47:39 PM 42.1050 -102.6100 72° East 531 611 37,000  Level FlightAware ADS-B
Wed 04:48:16 PM 42.1290 -102.5110 72° East 531 611 37,000  Level FlightAware ADS-B
Wed 04:48:50 PM 42.1510 -102.4200 72° East 531 611 37,000  Level FlightAware ADS-B
Wed 04:49:26 PM 42.1740 -102.3230 72° East 531 611 37,000  Level FlightAware ADS-B
Wed 04:50:02 PM 42.1970 -102.2270 72° East 531 611 37,000  Level FlightAware ADS-B
Wed 04:50:38 PM 42.2200 -102.1300 72° East 531 611 37,000  Level FlightAware ADS-B
Wed 04:51:15 PM 42.2440 -102.0310 72° East 531 611 37,000  Level FlightAware ADS-B
Wed 04:52:17 PM 42.1592 -101.5017 72° East 533 613 37,000  Level Denver Center
Wed 04:53:19 PM 42.1811 -101.3153 81° East 527 606 37,000  Level Denver Center
Wed 04:54:21 PM 42.2083 -101.0947 80° East 532 612 37,000  Level Denver Center
Wed 04:55:23 PM 42.2297 -100.9083 81° East 527 606 37,000  Level Denver Center
Wed 04:56:25 PM 42.2547 -100.6914 81° East 524 603 37,000  Level Denver Center
Wed 04:57:26 PM 42.2733 -100.5339 81° East 529 609 37,000  Level Denver Center
Wed 05:02:40 PM 42.3915 -99.4624 81° East 533 613 37,000  Level FlightAware ADS-B
Wed 05:03:40 PM 42.4094 -99.2919 81° East 535 616 37,000  Level Denver Center
Wed 05:09:53 PM 42.5026 -98.0229 81° East 530 610 37,000  Level FlightAware ADS-B
Wed 05:11:27 PM 42.5163 -97.7129 86° East 528 608 37,000  Level FlightAware ADS-B
Wed 05:12:22 PM 42.5240 -97.5380 87° East 526 605 37,000  Level FlightAware ADS-B
Wed 05:12:53 PM 42.5279 -97.4328 87° East 526 605 37,000  Level FlightAware ADS-B
Wed 05:13:32 PM 42.5320 -97.3180 87° East 525 604 37,000  Level FlightAware ADS-B
Wed 05:14:04 PM 42.5370 -97.1980 87° East 525 604 37,000  Level FlightAware ADS-B
Wed 05:14:25 PM 42.5396 -97.1332 87° East 526 605 37,000  Level FlightAware ADS-B
Wed 05:15:18 PM 42.5460 -96.9580 87° East 524 603 37,000  Level FlightAware ADS-B
Wed 05:15:53 PM 42.5494 -96.8663 87° East 524 603 37,000  Level FlightAware ADS-B
Wed 05:16:28 PM 42.5540 -96.7290 87° East 523 602 37,000  Level FlightAware ADS-B
Wed 05:17:00 PM 42.5580 -96.6240 87° East 524 603 37,000  Level FlightAware ADS-B
Wed 05:17:38 PM 42.5620 -96.4990 87° East 524 603 37,000  Level FlightAware ADS-B
Wed 05:18:10 PM 42.5650 -96.3960 88° East 524 603 37,000  Level FlightAware ADS-B
Wed 05:18:48 PM 42.5690 -96.2670 88° East 525 604 37,000  Level FlightAware ADS-B
Wed 05:19:23 PM 42.5720 -96.1510 88° East 525 604 37,000  Level FlightAware ADS-B
Wed 05:20:00 PM 42.5760 -96.0320 87° East 525 604 37,000  Level FlightAware ADS-B
Wed 05:20:32 PM 42.5790 -95.9260 88° East 526 605 37,000  Level FlightAware ADS-B
Wed 05:21:04 PM 42.5810 -95.8220 88° East 526 605 37,000  Level FlightAware ADS-B
Wed 05:21:44 PM 42.5850 -95.6920 88° East 526 605 37,000  Level FlightAware ADS-B
Wed 05:22:20 PM 42.5880 -95.5740 88° East 526 605 37,000  Level FlightAware ADS-B
Wed 05:22:39 PM 42.5892 -95.5076 89° East 526 605 37,000  Level FlightAware ADS-B (LPVM)
Wed 05:23:12 PM 42.5917 -95.3992 88° East 527 606 37,000  Level FlightAware ADS-B (LPVM)
Wed 05:23:29 PM 42.5929 -95.3441 88° East 527 606 37,000  Level FlightAware ADS-B
Wed 05:24:04 PM 42.5950 -95.2300 89° East 527 606 37,000  Level FlightAware ADS-B
Wed 05:24:12 PM 42.5959 -95.2027 87° East 527 606 37,000  Level FlightAware ADS-B (LPVM)
Wed 05:24:42 PM 42.5979 -95.1067 88° East 527 606 37,000  Level FlightAware ADS-B (LPVM)
Wed 05:25:12 PM 42.6000 -95.0040 88° East 527 606 37,000  Level FlightAware ADS-B
Wed 05:25:13 PM 42.5999 -94.9989 92° East 527 606 37,000  Level FlightAware ADS-B (LPVM)
Wed 05:25:52 PM 42.6022 -94.8736 89° East 527 606 37,000  Level FlightAware ADS-B (LPVM)
Wed 05:26:24 PM 42.6040 -94.7680 89° East 527 606 37,000  Level FlightAware ADS-B
Wed 05:26:45 PM 42.6053 -94.6963 89° East 526 605 37,000  Level FlightAware ADS-B (LPVM)
Wed 05:27:29 PM 42.6075 -94.5522 89° East 526 605 37,000  Level FlightAware ADS-B (LPVM)
Wed 05:28:08 PM 42.6090 -94.4280 89° East 525 604 37,000  Level FlightAware ADS-B
Wed 05:28:32 PM 42.6105 -94.3470 89° East 526 605 37,000  Level FlightAware ADS-B (LPVM)
Wed 05:29:02 PM 42.6112 -94.2963 89° East 526 605 37,000  Level FlightAware ADS-B (LPVM)
Wed 05:29:52 PM 42.6131 -94.0815 89° East 527 606 37,000  Level FlightAware ADS-B (LPVM)
Wed 05:30:26 PM 42.6139 -93.9707 89° East 527 606 37,000  Level FlightAware ADS-B
Wed 05:30:31 PM 42.6136 -94.0017 269° West 527 606 37,000  Level FlightAware ADS-B (LPVM)
Wed 05:31:05 PM 42.6150 -93.8410 89° East 528 608 37,000  Level FlightAware ADS-B
Wed 05:31:38 PM 42.6144 -93.8914 269° West 528 608 37,000  Level FlightAware ADS-B
Wed 05:32:14 PM 42.6160 -93.6140 89° East 527 606 37,000  Level FlightAware ADS-B
Wed 05:32:48 PM 42.6160 -93.5010 90° East 527 606 37,000  Level FlightAware ADS-B
Wed 05:32:52 PM 42.6162 -93.4858 89° East 527 606 37,000  Level FlightAware ADS-B (LPVM)
Wed 05:33:23 PM 42.6160 -93.3890 90° East 525 604 37,000  Level FlightAware ADS-B
Wed 05:33:58 PM 42.6170 -93.2720 89° East 524 603 37,000  Level FlightAware ADS-B
Wed 05:34:22 PM 42.6167 -93.1918 90° East 524 603 37,000  Level FlightAware ADS-B (LPVM)
Wed 05:35:06 PM 42.6170 -93.0480 90° East 522 601 37,000  Level FlightAware ADS-B
Wed 05:35:35 PM 42.6165 -92.9521 90° East 521 600 37,000  Level FlightAware ADS-B (LPVM)
Wed 05:36:19 PM 42.6160 -92.8110 90° East 521 600 37,000  Level FlightAware ADS-B
Wed 05:36:48 PM 42.6158 -92.7154 90° East 521 600 37,000  Level FlightAware ADS-B (LPVM)
Wed 05:37:29 PM 42.6150 -92.5820 90° East 521 600 37,000  Level FlightAware ADS-B
Wed 05:37:43 PM 42.6150 -92.5430 90° East 521 600 37,000  Level FlightAware ADS-B (LPVM)
Wed 05:38:14 PM 42.6144 -92.4406 90° East 521 600 37,000  Level FlightAware ADS-B (LPVM)
Wed 05:39:02 PM 42.6133 -92.2836 91° East 520 598 37,000  Level FlightAware ADS-B (LPVM)
Wed 05:39:45 PM 42.6120 -92.1430 91° East 518 596 37,000  Level FlightAware ADS-B
Wed 05:39:49 PM 42.6119 -92.1272 90° East 517 595 37,000  Level FlightAware ADS-B (LPVM)
Wed 05:40:21 PM 42.6109 -92.0231 91° East 516 594 37,000  Level FlightAware ADS-B (LPVM)
Wed 05:40:55 PM 42.6100 -91.9200 91° East 514 592 37,000  Level FlightAware ADS-B
Wed 05:41:03 PM 42.6095 -91.8891 91° East 514 592 37,000  Level FlightAware ADS-B (LPVM)
Wed 05:41:42 PM 42.6081 -91.7657 91° East 511 588 37,000  Level FlightAware ADS-B (LPVM)
Wed 05:42:23 PM 42.6063 -91.6301 91° East 509 586 37,000  Level FlightAware ADS-B (LPVM)
Wed 05:42:54 PM 42.6051 -91.5376 91° East 507 583 37,000  Level FlightAware ADS-B (LPVM)
Wed 05:43:38 PM 42.6030 -91.3971 91° East 504 580 37,000  Level FlightAware ADS-B (LPVM)
Wed 05:44:19 PM 42.6013 -91.2891 91° East 502 578 37,000  Level FlightAware ADS-B (LPVM)
Wed 05:44:53 PM 42.5991 -91.1594 91° East 500 575 37,000  Level FlightAware ADS-B (LPVM)
Wed 05:45:32 PM 42.5971 -91.0464 91° East 498 573 37,000  Level FlightAware ADS-B (LPVM)
Wed 05:46:11 PM 42.5950 -90.9170 91° East 497 572 37,000  Level FlightAware ADS-B
Wed 05:46:22 PM 42.5942 -90.8944 93° East 497 572 37,000  Level FlightAware ADS-B (LPVM)
Wed 05:47:01 PM 42.5914 -90.7594 92° East 497 572 37,000  Level FlightAware ADS-B (LPVM)
Wed 05:47:59 PM 42.5880 -90.5840 91° East 499 574 37,000  Level FlightAware ADS-B
Wed 05:48:43 PM 42.5840 -90.4470 92° East 501 577 37,000  Level FlightAware ADS-B
Wed 05:49:18 PM 42.5820 -90.3360 91° East 502 578 37,000  Level FlightAware ADS-B
Wed 05:49:53 PM 42.5790 -90.2270 92° East 503 579 37,000  Level FlightAware ADS-B
Wed 05:50:28 PM 42.5760 -90.1160 92° East 503 579 37,000  Level FlightAware ADS-B
Wed 05:51:04 PM 42.5730 -89.9990 92° East 504 580 37,000  Level FlightAware ADS-B
Wed 05:51:36 PM 42.5700 -89.8990 92° East 504 580 37,000  Level FlightAware ADS-B
Wed 05:52:08 PM 42.5670 -89.7960 92° East 504 580 37,000  Level FlightAware ADS-B
Wed 05:52:48 PM 42.5630 -89.6730 92° East 503 579 37,000  Level FlightAware ADS-B
Wed 05:53:20 PM 42.5600 -89.5710 92° East 503 579 37,000  Level FlightAware ADS-B
Wed 05:53:56 PM 42.5570 -89.4610 92° East 503 579 37,000  Level FlightAware ADS-B
Wed 05:54:32 PM 42.5530 -89.3460 93° East 502 578 37,000  Level FlightAware ADS-B
Wed 05:55:08 PM 42.5490 -89.2310 93° East 501 577 37,000  Level FlightAware ADS-B
Wed 05:55:40 PM 42.5460 -89.1370 92° East 501 577 37,000  Level FlightAware ADS-B
Wed 05:56:18 PM 42.5410 -89.0150 93° East 500 575 37,000  Level FlightAware ADS-B
Wed 05:56:54 PM 42.5370 -88.9070 93° East 499 574 37,000  Level FlightAware ADS-B
Wed 05:57:30 PM 42.5330 -88.7940 93° East 499 574 37,000  Level FlightAware ADS-B
Wed 05:58:02 PM 42.5290 -88.6890 93° East 500 575 37,000  Level FlightAware ADS-B
Wed 05:58:38 PM 42.5250 -88.5810 93° East 499 574 37,000  Level FlightAware ADS-B
Wed 05:59:14 PM 42.5200 -88.4680 93° East 499 574 37,000  Level FlightAware ADS-B
Wed 05:59:50 PM 42.5150 -88.3520 93° East 498 573 37,000  Level FlightAware ADS-B
Wed 06:00:22 PM 42.5110 -88.2610 93° East 498 573 37,000  Level FlightAware ADS-B
Wed 06:00:58 PM 42.5060 -88.1430 93° East 497 572 37,000  Level FlightAware ADS-B
Wed 06:01:34 PM 42.5020 -88.0320 93° East 497 572 37,000  Level FlightAware ADS-B
Wed 06:02:10 PM 42.5000 -87.9190 91° East 497 572 37,000  Level FlightAware ADS-B
Wed 06:02:34 PM 42.5000 -87.8480 90° East 497 572 37,000  Level FlightAware ADS-B
Wed 06:03:12 PM 42.5000 -87.7230 90° East 497 572 37,000  Level FlightAware ADS-B
Wed 06:03:48 PM 42.4990 -87.6110 91° East 496 571 37,000  Level FlightAware ADS-B
Wed 06:04:24 PM 42.4990 -87.5030 90° East 494 568 37,000  Level FlightAware ADS-B
Wed 06:04:56 PM 42.4990 -87.4010 90° East 492 566 37,000  Level FlightAware ADS-B
Wed 06:05:34 PM 42.4980 -87.2870 91° East 491 565 37,000  Level FlightAware ADS-B
Wed 06:06:06 PM 42.4970 -87.1880 91° East 490 564 37,000  Level FlightAware ADS-B
Wed 06:06:40 PM 42.4970 -87.0830 90° East 490 564 37,000  Level FlightAware ADS-B
Wed 06:07:18 PM 42.4960 -86.9700 91° East 490 564 37,000  Level FlightAware ADS-B
Wed 06:07:48 PM 42.4950 -86.8800 91° East 490 564 37,000  Level FlightAware ADS-B
Wed 06:08:23 PM 42.4940 -86.7670 91° East 490 564 37,000  Level FlightAware ADS-B
Wed 06:09:00 PM 42.4930 -86.6530 91° East 490 564 37,000  Level FlightAware ADS-B
Wed 06:09:37 PM 42.4910 -86.5410 91° East 490 564 37,000  Level FlightAware ADS-B
Wed 06:10:14 PM 42.4900 -86.4260 91° East 489 563 37,000  Level FlightAware ADS-B
Wed 06:10:46 PM 42.4880 -86.3300 92° East 488 562 37,000  Level FlightAware ADS-B
Wed 06:11:01 PM 42.4880 -86.2840 90° East 488 562 37,000  Level FlightAware ADS-B
Wed 06:11:54 PM 42.4850 -86.1240 91° East 488 562 37,000  Level FlightAware ADS-B
Wed 06:12:29 PM 42.4830 -86.0160 91° East 487 560 37,000  Level FlightAware ADS-B
Wed 06:13:06 PM 42.4810 -85.9020 91° East 487 560 37,000  Level FlightAware ADS-B
Wed 06:13:36 PM 42.4800 -85.8110 91° East 486 559 37,000  Level FlightAware ADS-B
Wed 06:14:15 PM 42.4770 -85.6950 92° East 486 559 37,000  Level FlightAware ADS-B
Wed 06:14:51 PM 42.4750 -85.5830 91° East 486 559 37,000  Level FlightAware ADS-B
Wed 06:15:24 PM 42.4730 -85.4840 92° East 486 559 37,000  Level FlightAware ADS-B
Wed 06:15:57 PM 42.4710 -85.3850 92° East 486 559 37,000  Level FlightAware ADS-B
Wed 06:16:34 PM 42.4680 -85.2770 92° East 485 558 37,000  Level FlightAware ADS-B
Wed 06:17:11 PM 42.4660 -85.1610 91° East 485 558 37,000  Level FlightAware ADS-B
Wed 06:17:43 PM 42.4630 -85.0640 92° East 485 558 37,000  Level FlightAware ADS-B
Wed 06:18:20 PM 42.4600 -84.9530 92° East 486 559 37,000  Level FlightAware ADS-B
Wed 06:18:53 PM 42.4580 -84.8540 92° East 486 559 37,000  Level FlightAware ADS-B
Wed 06:19:29 PM 42.4550 -84.7470 92° East 485 558 37,000  Level FlightAware ADS-B
Wed 06:20:06 PM 42.4520 -84.6350 92° East 484 557 37,000  Level FlightAware ADS-B
Wed 06:20:38 PM 42.4490 -84.5340 92° East 483 556 37,000  Level FlightAware ADS-B
Wed 06:21:13 PM 42.4450 -84.4280 93° East 482 555 37,000  Level FlightAware ADS-B
Wed 06:21:50 PM 42.4420 -84.3170 92° East 481 554 37,000  Level FlightAware ADS-B
Wed 06:22:24 PM 42.4390 -84.2190 92° East 481 554 37,000  Level FlightAware ADS-B
Wed 06:22:56 PM 42.4350 -84.1210 93° East 480 552 37,000  Level FlightAware ADS-B
Wed 06:23:32 PM 42.4320 -84.0160 92° East 480 552 37,000  Level FlightAware ADS-B
Wed 06:24:08 PM 42.4280 -83.9050 93° East 479 551 37,000  Level FlightAware ADS-B
Wed 06:24:44 PM 42.4240 -83.7970 93° East 478 550 37,000  Level FlightAware ADS-B
Wed 06:25:20 PM 42.4200 -83.6900 93° East 477 549 37,000  Level FlightAware ADS-B
Wed 06:25:59 PM 42.4160 -83.5770 93° East 474 545 37,000  Level FlightAware ADS-B
Wed 06:26:34 PM 42.4120 -83.4760 93° East 472 543 37,000  Level FlightAware ADS-B
Wed 06:27:06 PM 42.4080 -83.3760 93° East 470 541 37,000  Level FlightAware ADS-B
Wed 06:27:49 PM 42.4040 -83.2670 93° East 469 540 37,000  Level FlightAware ADS-B
Wed 06:28:32 PM 42.3990 -83.1510 93° East 467 537 37,000  Level FlightAware ADS-B
Wed 06:29:13 PM 42.3940 -83.0370 93° East 466 536 37,000  Level FlightAware ADS-B
Wed 06:29:50 PM 42.3890 -82.9330 94° East 465 535 37,000  Level FlightAware ADS-B
Wed 06:30:27 PM 42.3840 -82.8120 93° East 465 535 37,000  Level FlightAware ADS-B
Wed 06:30:59 PM 42.3800 -82.7280 94° East 464 534 37,000  Level FlightAware ADS-B
Wed 06:31:38 PM 42.3750 -82.6080 93° East 464 534 37,000  Level FlightAware ADS-B
Wed 06:32:10 PM 42.3720 -82.5170 93° East 464 534 37,000  Level FlightAware ADS-B
Wed 06:32:47 PM 42.3680 -82.4100 93° East 464 534 37,000  Level FlightAware ADS-B
Wed 06:33:30 PM 42.3620 -82.2800 94° East 464 534 37,000  Level FlightAware ADS-B
Wed 06:34:04 PM 42.3590 -82.1920 93° East 464 534 37,000  Level FlightAware ADS-B
Wed 06:34:44 PM 42.3540 -82.0780 93° East 464 534 37,000  Level FlightAware ADS-B
Wed 06:35:20 PM 42.3490 -81.9600 93° East 464 534 37,000  Level FlightAware ADS-B
Wed 06:35:57 PM 42.3450 -81.8740 94° East 464 534 37,000  Level FlightAware ADS-B
Wed 06:36:33 PM 42.3400 -81.7580 93° East 465 535 37,000  Level FlightAware ADS-B
Wed 06:37:12 PM 42.3340 -81.6440 94° East 465 535 37,000  Level FlightAware ADS-B
Wed 06:37:57 PM 42.3270 -81.4900 93° East 466 536 37,000  Level FlightAware ADS-B
Wed 06:38:29 PM 42.3230 -81.3980 93° East 467 537 37,000  Level FlightAware ADS-B
Wed 06:39:08 PM 42.3170 -81.2840 94° East 468 539 37,000  Level FlightAware ADS-B
Wed 06:39:39 PM 42.3120 -81.1920 94° East 469 540 37,000  Level FlightAware ADS-B
Wed 06:40:13 PM 42.3070 -81.0940 94° East 469 540 37,000  Level FlightAware ADS-B
Wed 06:40:52 PM 42.3010 -80.9800 94° East 470 541 37,000  Level FlightAware ADS-B
Wed 06:41:27 PM 42.2960 -80.8790 94° East 470 541 37,000  Level FlightAware ADS-B
Wed 06:42:00 PM 42.2910 -80.7850 94° East 471 542 37,000  Level FlightAware ADS-B
Wed 06:42:34 PM 42.2850 -80.6810 94° East 471 542 37,000  Level FlightAware ADS-B
Wed 06:43:11 PM 42.2800 -80.5750 94° East 472 543 37,000  Level FlightAware ADS-B
Wed 06:43:45 PM 42.2740 -80.4740 95° East 473 544 37,000  Level FlightAware ADS-B
Wed 06:44:22 PM 42.2680 -80.3650 94° East 474 545 37,000  Level FlightAware ADS-B
Wed 06:44:56 PM 42.2620 -80.2650 95° East 474 545 37,000  Level FlightAware ADS-B
Wed 06:45:28 PM 42.2560 -80.1700 95° East 475 547 37,000  Level FlightAware ADS-B
Wed 06:46:05 PM 42.2500 -80.0630 94° East 475 547 37,000  Level FlightAware ADS-B
Wed 06:46:42 PM 42.2430 -79.9520 95° East 475 547 37,000  Level FlightAware ADS-B
Wed 06:47:15 PM 42.2370 -79.8580 95° East 475 547 37,000  Level FlightAware ADS-B
Wed 06:47:49 PM 42.2310 -79.7550 94° East 475 547 37,000  Level FlightAware ADS-B
Wed 06:48:27 PM 42.2230 -79.6440 96° East 475 547 37,000  Level FlightAware ADS-B
Wed 06:49:03 PM 42.2170 -79.5400 94° East 475 547 37,000  Level FlightAware ADS-B
Wed 06:49:34 PM 42.2110 -79.4460 95° East 475 547 37,000  Level FlightAware ADS-B
Wed 06:50:11 PM 42.2030 -79.3380 96° East 476 548 37,000  Level FlightAware ADS-B
Wed 06:50:45 PM 42.1970 -79.2380 95° East 476 548 37,000  Level FlightAware ADS-B
Wed 06:51:20 PM 42.1880 -79.1370 97° East 476 548 37,000  Level FlightAware ADS-B
Wed 06:52:03 PM 42.1620 -79.0120 106° East 474 545 37,000  Level FlightAware ADS-B
Wed 06:52:41 PM 42.1360 -78.9060 108° East 474 545 37,000  Level FlightAware ADS-B
Wed 06:53:13 PM 42.1130 -78.8160 109° East 475 547 37,000  Level FlightAware ADS-B
Wed 06:53:51 PM 42.0860 -78.7110 109° East 475 547 37,000  Level FlightAware ADS-B
Wed 06:54:23 PM 42.0630 -78.6210 109° East 476 548 37,000  Level FlightAware ADS-B
Wed 06:54:59 PM 42.0370 -78.5200 109° East 476 548 37,000  Level FlightAware ADS-B
Wed 06:55:29 PM 42.0160 -78.4360 109° East 476 548 37,000  Level FlightAware ADS-B
Wed 06:56:10 PM 41.9860 -78.3200 109° East 476 548 37,000  Level FlightAware ADS-B
Wed 06:56:42 PM 41.9630 -78.2310 109° East 477 549 37,000  Level FlightAware ADS-B
Wed 06:57:20 PM 41.9360 -78.1270 109° East 477 549 37,000  Level FlightAware ADS-B
Wed 06:57:56 PM 41.9100 -78.0260 109° East 477 549 37,000  Level FlightAware ADS-B
Wed 06:58:30 PM 41.8850 -77.9280 109° East 478 550 37,000  Level FlightAware ADS-B
Wed 06:59:04 PM 41.8600 -77.8340 110° East 479 551 37,000  Level FlightAware ADS-B
Wed 06:59:40 PM 41.8340 -77.7350 109° East 479 551 37,000  Level FlightAware ADS-B
Wed 07:00:16 PM 41.8080 -77.6340 109° East 479 551 37,000  Level FlightAware ADS-B
Wed 07:00:51 PM 41.7820 -77.5380 110° East 479 551 37,000  Level FlightAware ADS-B
Wed 07:01:24 PM 41.7570 -77.4440 110° East 479 551 37,000  Level FlightAware ADS-B
Wed 07:02:00 PM 41.7300 -77.3420 109° East 479 551 37,000  Level FlightAware ADS-B
Wed 07:02:36 PM 41.7040 -77.2450 110° East 479 551 37,000  Level FlightAware ADS-B
Wed 07:03:10 PM 41.6780 -77.1480 110° East 479 551 37,000  Level FlightAware ADS-B
Wed 07:03:42 PM 41.6550 -77.0640 110° East 479 551 37,000  Level FlightAware ADS-B
Wed 07:04:18 PM 41.6290 -76.9680 110° East 479 551 37,000  Level FlightAware ADS-B
Wed 07:04:53 PM 41.6030 -76.8710 110° East 479 551 37,000  Level FlightAware ADS-B
Wed 07:05:23 PM 41.5810 -76.7900 110° East 479 551 37,000  Level FlightAware ADS-B
Wed 07:05:58 PM 41.5530 -76.6910 111° Southeast 478 550 37,000  Level FlightAware ADS-B
Wed 07:06:33 PM 41.5260 -76.5930 110° East 478 550 37,000  Level FlightAware ADS-B
Wed 07:07:03 PM 41.5040 -76.5100 109° East 478 550 37,000  Level FlightAware ADS-B
Wed 07:07:46 PM 41.4690 -76.3860 111° Southeast 478 550 37,000  Level FlightAware ADS-B
Wed 07:08:26 PM 41.4390 -76.2780 110° East 479 551 37,000 -240 Level FlightAware ADS-B
Wed 07:09:01 PM 41.4120 -76.1820 111° Southeast 478 550 36,700 -1,167 Descending FlightAware ADS-B
Wed 07:09:38 PM 41.3830 -76.0770 110° East 481 554 35,600 -2,000 Descending FlightAware ADS-B
Wed 07:10:10 PM 41.3570 -75.9860 111° Southeast 484 557 34,400 -2,507 Descending FlightAware ADS-B
Wed 07:10:45 PM 41.3300 -75.8920 111° Southeast 486 559 32,800 -2,647 Descending FlightAware ADS-B
Wed 07:11:18 PM 41.3050 -75.8010 110° East 483 556 31,400 -2,609 Descending FlightAware ADS-B
Wed 07:11:54 PM 41.2750 -75.6980 111° Southeast 479 551 29,800 -2,912 Descending FlightAware ADS-B
Wed 07:12:26 PM 41.2470 -75.6110 113° Southeast 483 556 28,100 -3,134 Descending FlightAware ADS-B
Wed 07:13:01 PM 41.2160 -75.5190 114° Southeast 474 545 26,300 -3,042 Descending FlightAware ADS-B
Wed 07:13:37 PM 41.1850 -75.4260 114° Southeast 457 526 24,500 -2,769 Descending FlightAware ADS-B
Wed 07:14:06 PM 41.1610 -75.3550 114° Southeast 453 521 23,300 -1,588 Descending FlightAware ADS-B
Wed 07:14:45 PM 41.1260 -75.2520 114° Southeast 445 512 22,700 -1,280 Descending FlightAware ADS-B
Wed 07:15:21 PM 41.0960 -75.1630 114° Southeast 435 501 21,700 -1,479 Descending FlightAware ADS-B
Wed 07:15:58 PM 41.0670 -75.0770 114° Southeast 427 491 20,900 -1,324 Descending FlightAware ADS-B
Wed 07:16:29 PM 41.0410 -75.0000 114° Southeast 428 493 20,200 -1,433 Descending FlightAware ADS-B
Wed 07:17:05 PM 41.0130 -74.9180 114° Southeast 424 488 19,300 -1,125 Descending FlightAware ADS-B
Wed 07:17:33 PM 40.9950 -74.8460 108° East 420 483 19,000 -300 Descending FlightAware ADS-B
Wed 07:18:05 PM 40.9850 -74.7640 99° East 423 487 19,000  Level FlightAware ADS-B
Wed 07:18:45 PM 40.9740 -74.6640 98° East 423 487 19,000  Level FlightAware ADS-B
Wed 07:19:21 PM 40.9640 -74.5720 98° East 422 486 19,000  Level FlightAware ADS-B
Wed 07:19:52 PM 40.9550 -74.4910 98° East 423 487 19,000  Level FlightAware ADS-B
Wed 07:20:30 PM 40.9440 -74.3940 99° East 424 488 19,000  Level FlightAware ADS-B
Wed 07:20:51 PM 40.9310 -74.3420 108° East 425 489 19,000  Level FlightAware ADS-B
Wed 07:21:12 PM 40.9110 -74.2970 120° Southeast 426 490 19,000  Level FlightAware ADS-B
Wed 07:21:48 PM 40.8670 -74.2210 127° Southeast 427 491 19,000 -87 Level FlightAware ADS-B
Wed 07:22:21 PM 40.8270 -74.1520 127° Southeast 425 489 18,900 -533 Descending FlightAware ADS-B
Wed 07:22:33 PM 40.8152 -74.1314 127° Southeast 424 488 18,600 -1,875 Descending FlightAware ADS-B (KSNC)
Wed 07:23:09 PM 40.7698 -74.0544 128° Southeast 418 481 17,400 -2,190 Descending FlightAware ADS-B
Wed 07:23:36 PM 40.7317 -74.0100 139° Southeast 415 478 16,300 -2,000 Descending FlightAware ADS-B
Wed 07:24:21 PM 40.6530 -73.9780 163° South 382 440 15,000 -1,569 Descending FlightAware ADS-B
Wed 07:24:41 PM 40.6196 -73.9745 175° South 415 478 14,600 -1,031 Descending FlightAware ADS-B
Wed 07:25:25 PM 40.5520 -73.9670 175° South 317 365 13,900 -1,158 Descending FlightAware ADS-B
Wed 07:25:38 PM 40.5360 -73.9580 157° South 312 359 13,500 -2,375 Descending FlightAware ADS-B
Wed 07:26:13 PM 40.4940 -73.9220 147° Southeast 309 356 12,000 -2,667 Descending FlightAware ADS-B
Wed 07:26:50 PM 40.4490 -73.8830 147° Southeast 308 354 10,300 -2,571 Descending FlightAware ADS-B
Wed 07:27:02 PM 40.4380 -73.8680 134° Southeast 305 351 9,900 -2,100 Descending FlightAware ADS-B
Wed 07:27:10 PM 40.4320 -73.8550 121° Southeast 302 348 9,600 -2,250 Descending FlightAware ADS-B
Wed 07:27:18 PM 40.4270 -73.8410 115° Southeast 298 343 9,300 -2,143 Descending FlightAware ADS-B
Wed 07:27:38 PM 40.4190 -73.8070 107° East 297 342 8,600 -1,846 Descending FlightAware ADS-B
Wed 07:27:57 PM 40.4100 -73.7740 110° East 295 339 8,100 -1,333 Descending FlightAware ADS-B
Wed 07:28:05 PM 40.4080 -73.7610 101° East 291 335 8,000 -171 Descending FlightAware ADS-B
Wed 07:28:32 PM 40.4120 -73.7150 83° East 286 329 8,000  Level FlightAware ADS-B
Wed 07:28:45 PM 40.4160 -73.6920 77° East 284 327 8,000  Level FlightAware ADS-B
Wed 07:28:54 PM 40.4200 -73.6800 66° East 282 325 8,000  Level FlightAware ADS-B
Wed 07:29:13 PM 40.4340 -73.6500 58° Northeast 281 323 8,000  Level FlightAware ADS-B
Wed 07:29:40 PM 40.4520 -73.6120 58° Northeast 280 322 8,000  Level FlightAware ADS-B
Wed 07:29:59 PM 40.4680 -73.5880 49° Northeast 280 322 8,000  Level FlightAware ADS-B
Wed 07:30:19 PM 40.4820 -73.5660 50° Northeast 279 321 8,000  Level FlightAware ADS-B
Wed 07:30:39 PM 40.5000 -73.5380 50° Northeast 280 322 8,000 -409 Level FlightAware ADS-B
Wed 07:31:03 PM 40.5220 -73.5040 50° Northeast 276 318 7,700 -1,050 Descending FlightAware ADS-B
Wed 07:31:19 PM 40.5340 -73.4870 47° Northeast 275 316 7,300 -1,304 Descending FlightAware ADS-B
Wed 07:31:26 PM 40.5420 -73.4790 37° Northeast 273 314 7,200 -1,286 Descending FlightAware ADS-B
Wed 07:31:47 PM 40.5640 -73.4620 30° Northeast 269 310 6,700 -1,297 Descending FlightAware ADS-B
Wed 07:32:03 PM 40.5810 -73.4500 28° Northeast 270 311 6,400 -1,371 Descending FlightAware ADS-B
Wed 07:32:22 PM 40.6040 -73.4350 26° Northeast 269 310 5,900 -1,231 Descending FlightAware ADS-B
Wed 07:32:42 PM 40.6240 -73.4220 26° Northeast 266 306 5,600 -1,125 Descending FlightAware ADS-B
Wed 07:32:54 PM 40.6400 -73.4140 21° North 264 304 5,300 -1,500 Descending FlightAware ADS-B
Wed 07:32:58 PM 40.6438 -73.4135 North 264 304 5,200 -1,102 Descending FlightAware ADS-B (KSNC)
Wed 07:33:43 PM 40.6950 -73.4380 340° North 252 290 4,400 -1,015 Descending FlightAware ADS-B
Wed 07:34:03 PM 40.7160 -73.4510 335° Northwest 242 278 4,100 -857 Descending FlightAware ADS-B
Wed 07:34:18 PM 40.7300 -73.4600 334° Northwest 233 268 3,900 -882 Descending FlightAware ADS-B
Wed 07:34:37 PM 40.7480 -73.4720 333° Northwest 219 252 3,600 -789 Descending FlightAware ADS-B
Wed 07:34:56 PM 40.7640 -73.4820 335° Northwest 210 242 3,400 -789 Descending FlightAware ADS-B
Wed 07:35:15 PM 40.7800 -73.4950 328° Northwest 210 242 3,100 -774 Descending FlightAware ADS-B
Wed 07:35:27 PM 40.7860 -73.5100 298° West 218 251 3,000 -214 Descending FlightAware ADS-B
Wed 07:35:43 PM 40.7930 -73.5300 295° West 220 253 3,000 -214 Level FlightAware ADS-B
Wed 07:35:55 PM 40.7940 -73.5450 275° West 220 253 2,900 -750 Descending FlightAware ADS-B
Wed 07:36:15 PM 40.7920 -73.5730 265° West 218 251 2,600 -955 Descending FlightAware ADS-B
Wed 07:36:39 PM 40.7890 -73.6040 263° West 219 252 2,200 -837 Descending FlightAware ADS-B
Wed 07:36:58 PM 40.7830 -73.6270 251° West 219 252 2,000 -429 Descending FlightAware ADS-B
Wed 07:37:07 PM 40.7770 -73.6370 232° Southwest 213 245 2,000  Level FlightAware ADS-B
Wed 07:37:18 PM 40.7710 -73.6460 229° Southwest 205 236 2,000  Level FlightAware ADS-B
Wed 07:37:37 PM 40.7580 -73.6630 225° Southwest 193 222 2,000  Level FlightAware ADS-B
Wed 07:37:47 PM 40.7510 -73.6710 221° Southwest 193 222 2,000  Level FlightAware ADS-B
Wed 07:38:09 PM 40.7340 -73.6860 214° Southwest 194 223 2,000 -439 Level FlightAware ADS-B
Wed 07:38:28 PM 40.7200 -73.6970 211° Southwest 189 217 1,700 -878 Descending FlightAware ADS-B
Wed 07:38:50 PM 40.7040 -73.7090 210° Southwest 169 194 1,400 -857 Descending FlightAware ADS-B
Wed 07:39:10 PM 40.6920 -73.7180 210° Southwest 153 176 1,100 -837 Descending FlightAware ADS-B
Wed 07:39:33 PM 40.6780 -73.7290 211° Southwest 138 159 800 -682 Descending FlightAware ADS-B
Wed 07:39:54 PM 40.6680 -73.7370 211° Southwest 133 153 600 -585 Descending FlightAware ADS-B
Wed 07:40:14 PM 40.6570 -73.7450 209° Southwest 129 148 400 -769 Descending FlightAware ADS-B
Wed 07:40:33 PM 40.6470 -73.7530 211° Southwest 126 145 100 -947 Descending FlightAware ADS-B
Wed 07:40:58 PM 40.6360 -73.7620 212° Southwest 98 113 -240 Descending FlightAware ADS-B

Login

Don't have an account? Register now (free) for customized features, flight alerts, and more!